createdAt,value
2018-08-31T00:01:20.087Z,1.60
2018-08-31T00:04:56.716Z,1.10
2018-08-31T00:08:41.337Z,1.70
2018-08-31T00:13:26.282Z,1.10
2018-08-31T00:15:54.042Z,2.40
2018-08-31T00:18:21.679Z,1.63
2018-08-31T00:20:49.350Z,1.50
2018-08-31T00:23:16.999Z,1.37
2018-08-31T00:26:10.288Z,1.87
2018-08-31T00:28:50.061Z,1.70
2018-08-31T00:33:37.289Z,1.70
2018-08-31T00:40:24.326Z,1.40
2018-08-31T00:45:08.641Z,1.60
2018-08-31T00:47:36.276Z,1.77
2018-08-31T00:50:03.917Z,1.73
2018-08-31T00:52:31.582Z,2.13
2018-08-31T00:54:59.202Z,2.30
2018-08-31T00:57:26.811Z,1.67
2018-08-31T00:59:54.916Z,1.73
2018-08-31T01:02:22.588Z,1.55
2018-08-31T01:04:50.418Z,2.05
2018-08-31T01:07:18.033Z,1.95
2018-08-31T01:09:45.711Z,2.05
2018-08-31T01:12:14.011Z,2.30
2018-08-31T01:14:42.097Z,1.57
2018-08-31T01:17:09.795Z,1.47
2018-08-31T01:19:37.680Z,2.10
2018-08-31T01:22:05.317Z,1.60
2018-08-31T01:24:32.981Z,1.52
2018-08-31T01:27:00.690Z,1.70
2018-08-31T01:29:28.847Z,1.50
2018-08-31T01:31:56.518Z,1.90
2018-08-31T01:34:24.185Z,2.05
2018-08-31T01:36:51.812Z,1.20
2018-08-31T01:39:19.572Z,1.12
2018-08-31T01:41:47.829Z,1.72
2018-08-31T01:44:15.444Z,1.50
2018-08-31T01:46:43.265Z,2.52
2018-08-31T01:49:10.911Z,1.70
2018-08-31T01:51:38.582Z,1.60
2018-08-31T01:54:06.235Z,1.90
2018-08-31T01:56:34.124Z,1.42
2018-08-31T01:59:01.858Z,1.80
2018-08-31T02:01:29.501Z,1.50
2018-08-31T02:03:58.272Z,1.50
2018-08-31T02:06:26.031Z,1.82
2018-08-31T02:08:59.307Z,1.85
2018-08-31T02:11:27.751Z,1.95
2018-08-31T02:13:55.405Z,1.50
2018-08-31T02:16:23.039Z,1.20
2018-08-31T02:18:50.881Z,2.80
2018-08-31T02:21:18.612Z,1.65
2018-08-31T02:23:46.534Z,1.50
2018-08-31T02:26:14.141Z,1.42
2018-08-31T02:28:42.622Z,1.50
2018-08-31T02:31:10.589Z,1.72
2018-08-31T02:33:38.980Z,1.75
2018-08-31T02:36:06.644Z,1.60
2018-08-31T02:38:34.262Z,1.52
2018-08-31T02:41:02.165Z,1.90
2018-08-31T02:43:29.902Z,1.75
2018-08-31T02:45:57.634Z,2.12
2018-08-31T02:48:25.300Z,1.70
2018-08-31T02:50:53.778Z,1.60
2018-08-31T02:53:21.881Z,2.05
2018-08-31T02:55:50.800Z,1.80
2018-08-31T02:58:18.389Z,1.87
2018-08-31T03:00:46.713Z,1.47
2018-08-31T03:03:14.437Z,2.10
2018-08-31T03:05:42.083Z,1.40
2018-08-31T03:08:10.516Z,2.27
2018-08-31T03:10:38.258Z,1.70
2018-08-31T03:13:06.169Z,1.50
2018-08-31T03:15:33.848Z,1.85
2018-08-31T03:18:01.645Z,1.87
2018-08-31T03:20:29.386Z,1.80
2018-08-31T03:22:57.362Z,1.98
2018-08-31T03:25:25.468Z,2.55
2018-08-31T03:27:53.580Z,1.45
2018-08-31T03:30:21.462Z,2.10
2018-08-31T03:32:49.240Z,2.10
2018-08-31T03:35:16.872Z,1.50
2018-08-31T03:37:45.109Z,1.65
2018-08-31T03:40:12.820Z,1.70
2018-08-31T03:42:40.435Z,1.80
2018-08-31T03:45:08.274Z,1.85
2018-08-31T03:47:35.913Z,2.47
2018-08-31T03:50:03.807Z,1.62
2018-08-31T03:52:31.437Z,2.05
2018-08-31T03:54:59.140Z,2.20
2018-08-31T03:57:26.846Z,1.52
2018-08-31T03:59:54.897Z,2.30
2018-08-31T04:02:23.340Z,1.50
2018-08-31T04:04:51.691Z,1.42
2018-08-31T04:07:20.404Z,1.90
2018-08-31T04:09:48.222Z,1.82
2018-08-31T04:12:15.946Z,1.80
2018-08-31T04:14:43.544Z,1.80
2018-08-31T04:17:11.584Z,2.05
2018-08-31T04:19:39.220Z,1.98
2018-08-31T04:22:07.267Z,2.05
2018-08-31T04:24:35.268Z,2.72
2018-08-31T04:27:03.304Z,2.75
2018-08-31T04:29:31.899Z,2.25
2018-08-31T04:32:00.154Z,1.70
2018-08-31T04:34:29.698Z,2.12
2018-08-31T04:36:57.849Z,2.72
2018-08-31T04:39:25.592Z,2.15
2018-08-31T04:41:53.323Z,2.30
2018-08-31T04:44:21.103Z,1.85
2018-08-31T04:46:48.832Z,1.75
2018-08-31T04:49:16.724Z,1.60
2018-08-31T04:51:44.386Z,2.20
2018-08-31T04:54:12.120Z,2.05
2018-08-31T04:56:39.740Z,2.40
2018-08-31T04:59:07.365Z,1.52
2018-08-31T05:01:34.884Z,2.40
2018-08-31T05:04:02.939Z,2.00
2018-08-31T05:06:31.824Z,2.62
2018-08-31T05:08:59.706Z,2.83
2018-08-31T05:11:27.336Z,2.30
2018-08-31T05:13:55.583Z,2.58
2018-08-31T05:16:23.137Z,2.87
2018-08-31T05:18:50.768Z,3.15
2018-08-31T05:21:19.865Z,1.82
2018-08-31T05:23:47.681Z,2.35
2018-08-31T05:26:15.539Z,2.40
2018-08-31T05:28:43.696Z,3.00
2018-08-31T05:31:11.420Z,2.02
2018-08-31T05:33:39.123Z,2.85
2018-08-31T05:36:06.744Z,1.77
2018-08-31T05:38:34.285Z,2.25
2018-08-31T05:41:01.992Z,2.33
2018-08-31T05:43:30.178Z,2.85
2018-08-31T05:45:58.652Z,2.77
2018-08-31T05:48:26.357Z,2.27
2018-08-31T05:50:54.644Z,3.52
2018-08-31T05:53:23.559Z,2.20
2018-08-31T05:55:51.905Z,2.33
2018-08-31T05:58:19.565Z,3.10
2018-08-31T06:00:47.167Z,2.70
2018-08-31T06:03:14.735Z,2.92
2018-08-31T06:05:42.487Z,2.77
2018-08-31T06:08:10.031Z,2.47
2018-08-31T06:10:37.675Z,2.55
2018-08-31T06:13:05.946Z,3.33
2018-08-31T06:15:33.737Z,2.27
2018-08-31T06:18:01.428Z,3.35
2018-08-31T06:20:29.201Z,2.60
2018-08-31T06:22:56.748Z,3.10
2018-08-31T06:25:24.440Z,3.55
2018-08-31T06:27:52.121Z,2.72
2018-08-31T06:30:19.700Z,2.80
2018-08-31T06:32:47.801Z,3.33
2018-08-31T06:35:15.541Z,3.22
2018-08-31T06:37:43.973Z,2.67
2018-08-31T06:40:11.700Z,2.98
2018-08-31T06:42:39.516Z,2.75
2018-08-31T06:45:07.465Z,3.50
2018-08-31T06:47:35.198Z,2.77
2018-08-31T06:50:03.020Z,3.77
2018-08-31T06:52:31.328Z,3.98
2018-08-31T06:54:59.070Z,5.87
2018-08-31T06:57:26.763Z,4.03
2018-08-31T06:59:54.628Z,3.80
2018-08-31T07:02:22.300Z,3.70
2018-08-31T07:04:49.982Z,3.85
2018-08-31T07:07:18.198Z,3.35
2018-08-31T07:09:45.957Z,3.65
2018-08-31T07:12:13.689Z,4.20
2018-08-31T07:14:41.377Z,4.08
2018-08-31T07:17:09.039Z,3.92
2018-08-31T07:19:36.737Z,4.25
2018-08-31T07:22:04.899Z,4.37
2018-08-31T07:24:33.178Z,3.62
2018-08-31T07:27:00.880Z,3.72
2018-08-31T07:29:28.552Z,4.70
2018-08-31T07:31:56.205Z,3.90
2018-08-31T07:34:24.138Z,4.15
2018-08-31T07:36:51.765Z,3.70
2018-08-31T07:39:19.504Z,4.75
2018-08-31T07:41:47.172Z,4.12
2018-08-31T07:44:15.110Z,3.90
2018-08-31T07:46:42.863Z,4.55
2018-08-31T07:49:10.534Z,3.80
2018-08-31T07:51:38.076Z,3.90
2018-08-31T07:54:06.444Z,4.67
2018-08-31T07:56:35.338Z,4.20
2018-08-31T07:59:02.983Z,4.70
2018-08-31T08:01:30.768Z,3.73
2018-08-31T08:03:58.418Z,4.43
2018-08-31T08:06:26.423Z,4.20
2018-08-31T08:08:54.660Z,4.60
2018-08-31T08:11:23.064Z,5.50
2018-08-31T08:13:50.781Z,5.10
2018-08-31T08:16:18.397Z,4.75
2018-08-31T08:18:46.590Z,4.42
2018-08-31T08:21:14.960Z,4.57
2018-08-31T08:23:42.713Z,5.20
2018-08-31T08:26:10.685Z,4.70
2018-08-31T08:28:38.456Z,4.20
2018-08-31T08:31:06.692Z,4.77
2018-08-31T08:33:34.349Z,4.50
2018-08-31T08:36:02.269Z,5.10
2018-08-31T08:38:29.902Z,4.87
2018-08-31T08:40:57.792Z,4.80
2018-08-31T08:43:25.466Z,4.60
2018-08-31T08:45:53.738Z,4.70
2018-08-31T08:48:21.628Z,4.40
2018-08-31T08:50:49.313Z,4.33
2018-08-31T08:53:17.018Z,3.57
2018-08-31T08:55:44.705Z,4.00
2018-08-31T08:58:13.116Z,4.63
2018-08-31T09:00:41.445Z,4.17
2018-08-31T09:03:10.101Z,4.03
2018-08-31T09:05:37.914Z,3.53
2018-08-31T09:08:05.536Z,4.67
2018-08-31T09:10:33.924Z,3.60
2018-08-31T09:13:01.751Z,3.97
2018-08-31T09:15:29.715Z,4.03
2018-08-31T09:17:57.414Z,4.03
2018-08-31T09:20:25.161Z,3.40
2018-08-31T09:22:53.600Z,4.10
2018-08-31T09:25:21.701Z,4.20
2018-08-31T09:27:49.424Z,3.97
2018-08-31T09:30:22.692Z,4.20
2018-08-31T09:32:51.110Z,3.90
2018-08-31T09:35:18.904Z,4.53
2018-08-31T09:37:46.596Z,3.50
2018-08-31T09:40:14.599Z,3.60
2018-08-31T09:42:42.391Z,3.47
2018-08-31T09:45:10.052Z,3.80
2018-08-31T09:47:37.842Z,4.17
2018-08-31T09:50:06.588Z,4.77
2018-08-31T09:52:34.471Z,3.30
2018-08-31T09:55:02.166Z,3.83
2018-08-31T09:57:30.378Z,4.03
2018-08-31T09:59:58.603Z,3.40
2018-08-31T10:02:37.117Z,4.27
2018-08-31T10:05:06.912Z,4.33
2018-08-31T10:10:37.245Z,3.57
2018-08-31T10:13:05.049Z,3.80
2018-08-31T10:15:32.936Z,4.00
2018-08-31T10:18:00.613Z,4.10
2018-08-31T10:20:29.204Z,4.50
2018-08-31T10:22:57.745Z,3.80
2018-08-31T10:25:25.339Z,3.33
2018-08-31T10:27:53.571Z,4.57
2018-08-31T10:30:21.744Z,3.70
2018-08-31T10:32:50.137Z,4.30
2018-08-31T10:35:18.157Z,3.40
2018-08-31T10:37:46.455Z,4.03
2018-08-31T10:40:14.193Z,4.30
2018-08-31T10:42:41.782Z,4.23
2018-08-31T10:45:09.873Z,4.23
2018-08-31T10:47:37.792Z,4.23
2018-08-31T10:50:07.170Z,4.00
2018-08-31T10:52:34.786Z,4.27
2018-08-31T10:55:02.496Z,3.37
2018-08-31T10:57:30.174Z,4.40
2018-08-31T10:59:58.552Z,4.67
2018-08-31T11:02:26.545Z,3.53
2018-08-31T11:04:54.263Z,4.23
2018-08-31T11:07:22.561Z,4.27
2018-08-31T11:09:51.068Z,4.23
2018-08-31T11:12:18.871Z,4.00
2018-08-31T11:14:46.625Z,4.50
2018-08-31T11:17:15.685Z,3.80
2018-08-31T11:19:43.391Z,4.23
2018-08-31T11:22:11.761Z,4.80
2018-08-31T11:24:39.651Z,4.20
2018-08-31T11:27:07.726Z,4.63
2018-08-31T11:29:35.270Z,4.17
2018-08-31T11:32:03.369Z,4.30
2018-08-31T11:34:31.174Z,3.93
2018-08-31T11:36:58.826Z,3.77
2018-08-31T11:39:26.742Z,3.37
2018-08-31T11:41:54.389Z,5.03
2018-08-31T11:44:23.794Z,4.37
2018-08-31T11:46:51.547Z,4.40
2018-08-31T11:49:19.840Z,4.50
2018-08-31T11:51:47.672Z,4.70
2018-08-31T11:54:15.334Z,5.00
2018-08-31T11:56:43.530Z,4.30
2018-08-31T11:59:11.807Z,4.10
2018-08-31T12:01:40.302Z,4.90
2018-08-31T12:04:08.249Z,4.73
2018-08-31T12:06:36.122Z,5.57
2018-08-31T12:09:05.368Z,5.00
2018-08-31T12:11:33.364Z,5.00
2018-08-31T12:14:01.052Z,4.90
2018-08-31T12:16:28.976Z,5.07
2018-08-31T12:18:57.435Z,4.53
2018-08-31T12:21:25.972Z,4.70
2018-08-31T12:23:53.783Z,5.40
2018-08-31T12:26:22.955Z,4.20
2018-08-31T12:28:50.585Z,5.23
2018-08-31T12:31:18.275Z,4.13
2018-08-31T12:33:45.846Z,4.60
2018-08-31T12:36:13.593Z,5.07
2018-08-31T12:38:41.323Z,5.20
2018-08-31T12:41:09.431Z,5.30
2018-08-31T12:43:37.416Z,5.03
2018-08-31T12:46:05.098Z,4.50
2018-08-31T12:48:37.539Z,5.30
2018-08-31T12:51:05.202Z,4.57
2018-08-31T12:53:33.633Z,4.90
2018-08-31T12:56:01.276Z,4.23
2018-08-31T12:58:28.896Z,4.53
2018-08-31T13:00:56.777Z,4.50
2018-08-31T13:03:24.505Z,4.40
2018-08-31T13:05:53.537Z,4.93
2018-08-31T13:08:21.289Z,3.73
2018-08-31T13:10:48.988Z,3.53
2018-08-31T13:13:16.712Z,4.37
2018-08-31T13:15:45.262Z,4.17
2018-08-31T13:18:13.232Z,3.93
2018-08-31T13:20:41.031Z,3.70
2018-08-31T13:23:10.389Z,4.07
2018-08-31T13:25:38.201Z,3.43
2018-08-31T13:28:07.383Z,4.50
2018-08-31T13:30:35.113Z,3.80
2018-08-31T13:33:02.934Z,3.93
2018-08-31T13:35:32.783Z,3.40
2018-08-31T13:38:00.798Z,4.10
2018-08-31T13:40:28.486Z,3.10
2018-08-31T13:42:56.333Z,3.30
2018-08-31T13:45:24.184Z,4.30
2018-08-31T13:47:52.042Z,4.00
2018-08-31T13:50:19.763Z,3.67
2018-08-31T13:52:47.442Z,4.10
2018-08-31T13:55:15.149Z,3.63
2018-08-31T13:57:43.233Z,5.80
2018-08-31T14:00:10.920Z,7.30
2018-08-31T14:02:38.576Z,7.30
2018-08-31T14:05:07.052Z,6.97
2018-08-31T14:07:35.827Z,7.43
2018-08-31T14:10:03.676Z,8.20
2018-08-31T14:12:31.303Z,7.70
2018-08-31T14:14:59.763Z,8.27
2018-08-31T14:17:27.876Z,8.40
2018-08-31T14:19:55.873Z,7.63
2018-08-31T14:22:23.628Z,6.77
2018-08-31T14:24:52.017Z,6.60
2018-08-31T14:27:19.644Z,5.77
2018-08-31T14:29:47.949Z,7.47
2018-08-31T14:32:16.228Z,7.00
2018-08-31T14:34:43.856Z,7.10
2018-08-31T14:37:11.535Z,6.80
2018-08-31T14:39:39.775Z,6.53
2018-08-31T14:42:07.549Z,7.07
2018-08-31T14:44:35.392Z,7.60
2018-08-31T14:47:03.136Z,6.58
2018-08-31T14:49:31.750Z,7.40
2018-08-31T14:51:59.179Z,6.15
2018-08-31T14:54:31.421Z,7.17
2018-08-31T14:56:59.069Z,5.40
2018-08-31T14:59:27.024Z,5.40
2018-08-31T15:01:55.897Z,4.80
2018-08-31T15:04:24.186Z,5.03
2018-08-31T15:06:51.783Z,5.80
2018-08-31T15:09:20.065Z,5.47
2018-08-31T15:11:47.769Z,5.10
2018-08-31T15:14:18.667Z,5.80
2018-08-31T15:16:46.995Z,4.97
2018-08-31T15:19:15.806Z,5.60
2018-08-31T15:21:44.272Z,6.40
2018-08-31T15:24:12.381Z,5.57
2018-08-31T15:26:40.812Z,5.90
2018-08-31T15:29:08.574Z,6.70
2018-08-31T15:31:36.526Z,6.63
2018-08-31T15:34:05.221Z,7.87
2018-08-31T15:36:32.894Z,8.93
2018-08-31T15:39:01.079Z,8.50
2018-08-31T15:41:28.814Z,9.10
2018-08-31T15:43:56.577Z,9.17
2018-08-31T15:46:24.977Z,9.83
2018-08-31T15:48:53.054Z,8.40
2018-08-31T15:51:21.035Z,8.07
2018-08-31T15:53:48.840Z,8.30
2018-08-31T15:56:16.558Z,8.07
2018-08-31T15:58:44.548Z,7.20
2018-08-31T16:01:12.358Z,7.17
2018-08-31T16:03:40.272Z,7.83
2018-08-31T16:06:08.876Z,6.80
2018-08-31T16:08:36.621Z,7.43
2018-08-31T16:11:04.509Z,6.30
2018-08-31T16:13:32.229Z,7.37
2018-08-31T16:15:59.991Z,7.00
2018-08-31T16:18:27.758Z,7.03
2018-08-31T16:20:56.084Z,6.40
2018-08-31T16:23:23.860Z,7.80
2018-08-31T16:25:52.334Z,7.27
2018-08-31T16:28:20.426Z,7.77
2018-08-31T16:30:48.443Z,7.57
2018-08-31T16:33:16.311Z,7.00
2018-08-31T16:35:44.624Z,6.60
2018-08-31T16:38:12.328Z,6.63
2018-08-31T16:40:40.874Z,7.53
2018-08-31T16:43:08.732Z,7.20
2018-08-31T16:45:36.431Z,5.93
2018-08-31T16:48:04.664Z,6.70
2018-08-31T16:50:32.346Z,6.13
2018-08-31T16:53:00.954Z,5.67
2018-08-31T16:55:29.092Z,6.50
2018-08-31T16:57:57.336Z,5.60
2018-08-31T17:00:25.103Z,6.70
2018-08-31T17:02:52.857Z,7.10
2018-08-31T17:05:20.944Z,7.57
2018-08-31T17:07:48.953Z,5.93
2018-08-31T17:10:17.416Z,6.97
2018-08-31T17:12:45.141Z,6.23
2018-08-31T17:15:12.822Z,6.63
2018-08-31T17:17:40.952Z,7.70
2018-08-31T17:20:08.752Z,6.77
2018-08-31T17:22:36.744Z,7.00
2018-08-31T17:25:05.927Z,5.83
2018-08-31T17:27:39.248Z,6.83
2018-08-31T17:30:13.426Z,7.33
2018-08-31T17:32:46.649Z,6.20
2018-08-31T17:35:20.441Z,7.10
2018-08-31T17:37:48.407Z,7.13
2018-08-31T17:40:16.102Z,7.03
2018-08-31T17:42:43.866Z,7.00
2018-08-31T17:45:16.498Z,6.10
2018-08-31T17:47:44.256Z,6.83
2018-08-31T17:50:12.325Z,7.37
2018-08-31T17:52:40.732Z,7.37
2018-08-31T17:55:09.128Z,6.50
2018-08-31T17:57:37.093Z,6.77
2018-08-31T18:00:04.930Z,6.50
2018-08-31T18:02:32.914Z,6.23
2018-08-31T18:05:01.095Z,5.57
2018-08-31T18:07:30.769Z,6.58
2018-08-31T18:09:58.667Z,6.77
2018-08-31T18:12:26.636Z,6.00
2018-08-31T18:14:54.265Z,6.87
2018-08-31T18:17:22.787Z,5.87
2018-08-31T18:19:51.024Z,6.20
2018-08-31T18:22:19.053Z,5.80
2018-08-31T18:24:46.750Z,6.03
2018-08-31T18:27:14.628Z,6.20
2018-08-31T18:29:43.029Z,6.47
2018-08-31T18:32:11.113Z,6.90
2018-08-31T18:34:38.923Z,6.08
2018-08-31T18:37:07.491Z,6.80
2018-08-31T18:39:35.174Z,6.12
2018-08-31T18:42:03.590Z,7.10
2018-08-31T18:44:31.920Z,7.67
2018-08-31T18:46:59.648Z,6.63
2018-08-31T18:49:27.919Z,7.15
2018-08-31T18:51:55.593Z,7.12
2018-08-31T18:54:24.948Z,8.03
2018-08-31T18:56:52.914Z,6.83
2018-08-31T18:59:20.897Z,7.90
2018-08-31T19:01:49.816Z,8.00
2018-08-31T19:04:17.868Z,7.27
2018-08-31T19:06:46.180Z,5.92
2018-08-31T19:09:13.989Z,8.50
2018-08-31T19:11:42.494Z,5.73
2018-08-31T19:14:10.769Z,6.90
2018-08-31T19:16:38.697Z,5.70
2018-08-31T19:19:06.656Z,6.80
2018-08-31T19:21:34.699Z,6.87
2018-08-31T19:24:03.530Z,7.22
2018-08-31T19:26:32.004Z,6.15
2018-08-31T19:29:00.179Z,6.70
2018-08-31T19:31:28.165Z,6.83
2018-08-31T19:33:56.061Z,6.30
2018-08-31T19:36:24.896Z,7.00
2018-08-31T19:38:53.158Z,7.58
2018-08-31T19:41:21.050Z,7.30
2018-08-31T19:43:50.217Z,7.58
2018-08-31T19:46:18.227Z,8.13
2018-08-31T19:48:46.413Z,7.17
2018-08-31T19:51:14.400Z,6.55
2018-08-31T19:53:43.137Z,7.55
2018-08-31T19:56:15.751Z,7.43
2018-08-31T19:58:43.570Z,8.48
2018-08-31T20:01:12.411Z,7.57
2018-08-31T20:03:40.191Z,8.20
2018-08-31T20:06:08.277Z,8.10
2018-08-31T20:08:36.069Z,7.07
2018-08-31T20:11:04.110Z,8.37
2018-08-31T20:13:32.359Z,7.97
2018-08-31T20:16:00.255Z,7.45
2018-08-31T20:18:28.124Z,8.58
2018-08-31T20:20:56.268Z,9.18
2018-08-31T20:23:24.340Z,9.35
2018-08-31T20:25:52.958Z,9.05
2018-08-31T20:28:21.514Z,8.03
2018-08-31T20:30:49.341Z,10.15
2018-08-31T20:33:21.338Z,8.20
2018-08-31T20:35:50.017Z,8.80
2018-08-31T20:38:18.093Z,9.03
2018-08-31T20:40:46.307Z,9.20
2018-08-31T20:43:14.383Z,8.77
2018-08-31T20:45:42.448Z,9.88
2018-08-31T20:48:10.606Z,7.87
2018-08-31T20:50:39.083Z,8.27
2018-08-31T20:53:07.002Z,9.67
2018-08-31T20:55:44.719Z,7.53
2018-08-31T20:58:14.084Z,10.37
2018-08-31T21:00:43.270Z,8.48
2018-08-31T21:03:12.212Z,8.40
2018-08-31T21:05:41.357Z,9.13
2018-08-31T21:08:09.403Z,9.40
2018-08-31T21:10:37.270Z,7.78
2018-08-31T21:13:05.122Z,7.58
2018-08-31T21:15:32.921Z,7.90
2018-08-31T21:18:00.836Z,6.90
2018-08-31T21:20:29.425Z,6.97
2018-08-31T21:22:57.313Z,7.72
2018-08-31T21:25:29.749Z,8.20
2018-08-31T21:27:57.550Z,7.17
2018-08-31T21:30:25.375Z,8.73
2018-08-31T21:32:53.625Z,8.10
2018-08-31T21:35:21.717Z,7.62
2018-08-31T21:37:49.443Z,8.23
2018-08-31T21:40:17.221Z,8.15
2018-08-31T21:42:44.908Z,7.47
2018-08-31T21:45:13.006Z,8.45
2018-08-31T21:47:40.631Z,8.15
2018-08-31T21:50:08.270Z,8.23
2018-08-31T21:52:36.228Z,8.98
2018-08-31T21:55:04.245Z,8.18
2018-08-31T21:57:31.860Z,8.55
2018-08-31T21:59:59.792Z,9.08
2018-08-31T22:02:28.038Z,9.58
2018-08-31T22:04:55.700Z,8.85
2018-08-31T22:07:23.581Z,10.23
2018-08-31T22:09:51.610Z,9.60
2018-08-31T22:12:19.336Z,9.40
2018-08-31T22:14:46.986Z,9.30
2018-08-31T22:17:14.644Z,9.25
2018-08-31T22:19:42.833Z,8.73
2018-08-31T22:22:11.012Z,8.95
2018-08-31T22:24:38.668Z,11.28
2018-08-31T22:27:06.307Z,8.68
2018-08-31T22:29:37.416Z,8.45
2018-08-31T22:32:05.124Z,9.63
2018-08-31T22:34:32.746Z,8.30
2018-08-31T22:37:00.769Z,9.68
2018-08-31T22:39:28.401Z,10.43
2018-08-31T22:41:55.972Z,8.88
2018-08-31T22:44:23.562Z,8.40
2018-08-31T22:46:51.200Z,8.95
2018-08-31T22:49:18.762Z,8.13
2018-08-31T22:51:46.463Z,8.20
2018-08-31T22:54:14.676Z,7.80
2018-08-31T22:56:42.337Z,8.55
2018-08-31T22:59:11.534Z,8.75
2018-08-31T23:01:40.086Z,8.68
2018-08-31T23:04:07.780Z,8.48
2018-08-31T23:06:35.437Z,8.53
2018-08-31T23:09:03.769Z,7.85
2018-08-31T23:11:31.432Z,8.65
2018-08-31T23:13:59.026Z,8.93
2018-08-31T23:16:26.561Z,9.15
2018-08-31T23:18:54.265Z,8.28
2018-08-31T23:21:21.915Z,8.38
2018-08-31T23:23:49.397Z,7.75
2018-08-31T23:26:17.549Z,7.03
2018-08-31T23:28:45.255Z,7.67
2018-08-31T23:31:13.049Z,6.65
2018-08-31T23:33:40.708Z,7.62
2018-08-31T23:36:08.289Z,7.83
2018-08-31T23:38:35.928Z,7.33
2018-08-31T23:41:04.530Z,6.78
2018-08-31T23:43:32.194Z,6.40
2018-08-31T23:45:59.795Z,7.03
2018-08-31T23:48:27.345Z,7.47
2018-08-31T23:50:54.894Z,6.80
2018-08-31T23:53:22.483Z,7.20
2018-08-31T23:55:50.075Z,6.00
2018-08-31T23:58:17.702Z,7.25
